Time;durP1;ratioP1;P1;durP2;ratioP2;P2;SDS_P1;SDS_P2;PMS_P1;PMS_P2;Temp;Humidity;BMP_temperature;BMP_pressure;BME280_temperature;BME280_humidity;BME280_pressure;Samples;Min_cycle;Max_cycle;Signal;HPM_P1;HPM_P2
2023/04/03 00:01:21;;;;;;;2.25;1.10;;;4.90;99.90;;;;;;5031163;28;20067;-63
2023/04/03 00:03:46;;;;;;;4.07;1.50;;;4.80;99.90;;;;;;5047127;28;20059;-63
2023/04/03 00:06:12;;;;;;;2.45;1.60;;;4.80;99.90;;;;;;5051339;28;20037;-63
2023/04/03 00:08:39;;;;;;;3.15;1.27;;;4.80;99.90;;;;;;5031852;28;20486;-63
2023/04/03 00:11:05;;;;;;;4.75;1.35;;;4.80;99.90;;;;;;5050712;28;20092;-63
2023/04/03 00:13:31;;;;;;;2.17;1.10;;;4.80;99.90;;;;;;5031480;28;20673;-63
2023/04/03 00:15:57;;;;;;;3.20;1.40;;;4.70;99.90;;;;;;5049197;28;20127;-63
2023/04/03 00:18:23;;;;;;;3.72;1.48;;;4.70;99.90;;;;;;5054569;28;20123;-63
2023/04/03 00:20:49;;;;;;;2.80;1.60;;;4.70;99.90;;;;;;5030374;28;20047;-64
2023/04/03 00:23:15;;;;;;;2.67;1.45;;;4.70;99.90;;;;;;5052056;28;20043;-64
2023/04/03 00:25:41;;;;;;;2.83;1.40;;;4.70;99.90;;;;;;5049677;28;20094;-64
2023/04/03 00:28:06;;;;;;;3.40;1.50;;;4.70;99.90;;;;;;5049865;28;20487;-64
2023/04/03 00:30:32;;;;;;;2.58;1.58;;;4.60;99.90;;;;;;5052115;28;20045;-64
2023/04/03 00:32:58;;;;;;;4.63;1.50;;;4.60;99.90;;;;;;5034892;28;20072;-66
2023/04/03 00:35:24;;;;;;;3.78;1.35;;;4.60;99.90;;;;;;5048331;28;20065;-64
2023/04/03 00:37:55;;;;;;;4.30;1.73;;;4.50;99.90;;;;;;5053215;28;20056;-64
2023/04/03 00:40:22;;;;;;;4.07;1.52;;;4.50;99.90;;;;;;5045071;28;20451;-65
2023/04/03 00:42:50;;;;;;;3.58;1.40;;;4.50;99.90;;;;;;5034718;28;20047;-65
2023/04/03 00:45:39;;;;;;;3.05;1.60;;;4.50;99.90;;;;;;5051629;28;20036;-64
2023/04/03 00:48:07;;;;;;;3.33;1.40;;;4.40;99.90;;;;;;5034793;28;20762;-64
2023/04/03 00:50:37;;;;;;;4.30;1.55;;;4.50;99.90;;;;;;5061473;28;20115;-64
2023/04/03 00:53:05;;;;;;;4.15;1.58;;;4.40;99.90;;;;;;5050989;28;20041;-64
2023/04/03 00:55:31;;;;;;;5.22;1.50;;;4.40;99.90;;;;;;5048316;28;20463;-65
2023/04/03 00:57:57;;;;;;;4.35;1.33;;;4.40;99.90;;;;;;5045950;28;20491;-65
2023/04/03 01:00:24;;;;;;;4.53;1.30;;;4.40;99.90;;;;;;5051921;28;20037;-64
2023/04/03 01:02:51;;;;;;;2.95;1.40;;;4.30;99.90;;;;;;5051521;28;20404;-64
2023/04/03 01:05:18;;;;;;;3.33;1.77;;;4.30;99.90;;;;;;5051850;28;20029;-64
2023/04/03 01:07:45;;;;;;;3.63;1.52;;;4.30;99.90;;;;;;5051399;28;20037;-64
2023/04/03 01:10:14;;;;;;;3.88;1.25;;;4.20;99.90;;;;;;5033071;28;20128;-64
2023/04/03 01:12:42;;;;;;;3.38;1.40;;;4.20;99.90;;;;;;5033056;28;20045;-64
2023/04/03 01:15:11;;;;;;;5.13;1.30;;;4.20;99.90;;;;;;5060433;28;20044;-64
2023/04/03 01:17:41;;;;;;;2.38;1.45;;;4.20;99.90;;;;;;5053143;28;20527;-63
2023/04/03 01:20:31;;;;;;;3.33;1.50;;;4.20;99.90;;;;;;5049999;28;20037;-62
2023/04/03 01:23:09;;;;;;;3.97;1.42;;;4.10;99.90;;;;;;5055863;28;20039;-62
2023/04/03 01:25:46;;;;;;;3.33;1.30;;;4.10;99.90;;;;;;5054674;28;20488;-62
2023/04/03 01:28:20;;;;;;;2.75;1.50;;;4.10;99.90;;;;;;5051291;28;20041;-63
2023/04/03 01:31:07;;;;;;;3.47;1.30;;;4.10;99.90;;;;;;5060326;28;20068;-63
2023/04/03 01:33:33;;;;;;;4.22;1.40;;;4.00;99.90;;;;;;5045127;28;20049;-63
2023/04/03 01:35:58;;;;;;;4.60;1.40;;;4.00;99.90;;;;;;5055013;28;20403;-65
2023/04/03 01:38:25;;;;;;;6.38;1.58;;;4.00;99.90;;;;;;5050526;28;20037;-65
2023/04/03 01:40:50;;;;;;;4.35;1.85;;;4.00;99.90;;;;;;5040817;28;20052;-63
2023/04/03 01:43:16;;;;;;;6.07;1.83;;;4.00;99.90;;;;;;5030884;28;20203;-64
2023/04/03 01:45:42;;;;;;;3.13;1.50;;;4.00;99.90;;;;;;5045993;28;20037;-66
2023/04/03 01:48:08;;;;;;;3.30;1.50;;;4.00;99.90;;;;;;5029176;28;20029;-66
2023/04/03 01:50:33;;;;;;;6.18;1.67;;;3.90;99.90;;;;;;5027374;28;20044;-63
2023/04/03 01:52:59;;;;;;;2.97;1.40;;;3.90;99.90;;;;;;5029910;28;20033;-62
2023/04/03 01:55:25;;;;;;;5.63;1.42;;;3.00;99.90;;;;;;5055539;28;20044;-64
2023/04/03 01:57:50;;;;;;;4.85;1.40;;;3.80;99.90;;;;;;5048083;28;20044;-68
2023/04/03 02:00:16;;;;;;;3.65;1.60;;;3.80;99.90;;;;;;5051241;28;20439;-65
2023/04/03 02:02:42;;;;;;;5.80;1.40;;;3.80;99.90;;;;;;5048646;28;20422;-62
2023/04/03 02:05:07;;;;;;;4.28;1.88;;;3.80;99.90;;;;;;5052296;28;20123;-64
2023/04/03 02:07:33;;;;;;;7.93;1.77;;;3.80;99.90;;;;;;5061027;28;20048;-64
2023/04/03 02:09:59;;;;;;;2.90;1.50;;;3.70;99.90;;;;;;5052968;28;20036;-70
2023/04/03 02:12:24;;;;;;;4.20;1.60;;;3.70;99.90;;;;;;5054494;28;20032;-63
2023/04/03 02:14:50;;;;;;;3.47;1.70;;;3.70;99.90;;;;;;5047766;28;20037;-62
2023/04/03 02:17:16;;;;;;;5.47;1.58;;;3.70;99.90;;;;;;5053851;28;20032;-64
2023/04/03 02:19:41;;;;;;;3.85;1.90;;;3.70;99.90;;;;;;5062967;28;20030;-64
2023/04/03 02:22:07;;;;;;;5.32;2.00;;;3.60;99.90;;;;;;5051074;28;20089;-63
2023/04/03 02:24:32;;;;;;;4.63;1.38;;;3.60;99.90;;;;;;5047823;28;20040;-64
2023/04/03 02:26:58;;;;;;;4.85;1.85;;;3.60;99.90;;;;;;5049198;28;20045;-62
2023/04/03 02:29:24;;;;;;;5.82;1.75;;;3.60;99.90;;;;;;5030079;28;20047;-63
2023/04/03 02:31:50;;;;;;;3.55;1.58;;;3.60;99.90;;;;;;5048894;28;20556;-64
2023/04/03 02:34:16;;;;;;;5.10;1.85;;;3.60;99.90;;;;;;5053421;28;20126;-64
2023/04/03 02:36:42;;;;;;;2.70;1.75;;;3.60;99.90;;;;;;5055224;28;20075;-65
2023/04/03 02:39:08;;;;;;;4.07;1.70;;;3.50;99.90;;;;;;5053277;28;20114;-66
2023/04/03 02:41:35;;;;;;;5.80;2.13;;;3.50;99.90;;;;;;5031761;28;20041;-68
2023/04/03 02:44:06;;;;;;;3.95;1.70;;;3.50;99.90;;;;;;5048625;28;20791;-63
2023/04/03 02:46:32;;;;;;;4.13;1.70;;;3.50;99.90;;;;;;5045686;28;20038;-62
2023/04/03 02:48:57;;;;;;;5.35;1.95;;;3.40;99.90;;;;;;5048164;28;20520;-63
2023/04/03 02:51:23;;;;;;;5.18;2.08;;;3.50;99.90;;;;;;5036076;28;20170;-63
2023/04/03 02:53:49;;;;;;;5.95;2.15;;;3.40;99.90;;;;;;5049308;28;20064;-63
2023/04/03 02:56:17;;;;;;;4.30;2.00;;;3.40;99.90;;;;;;5032606;28;20033;-63
2023/04/03 02:58:42;;;;;;;5.47;1.90;;;3.40;99.90;;;;;;5049260;28;20041;-65
2023/04/03 03:01:08;;;;;;;6.05;2.40;;;3.40;99.90;;;;;;5047094;28;20411;-69
2023/04/03 03:03:34;;;;;;;4.97;1.92;;;3.40;99.90;;;;;;5056476;28;20534;-63
2023/04/03 03:06:10;;;;;;;5.15;2.08;;;3.40;99.90;;;;;;5057220;28;20483;-66
2023/04/03 03:08:36;;;;;;;6.90;2.15;;;3.40;99.90;;;;;;5033242;28;20041;-63
2023/04/03 03:11:03;;;;;;;6.65;2.15;;;3.40;99.90;;;;;;5057207;28;20415;-64
2023/04/03 03:13:29;;;;;;;7.10;2.13;;;3.30;99.90;;;;;;5031454;28;20037;-65
2023/04/03 03:15:55;;;;;;;5.25;1.73;;;3.30;99.90;;;;;;5028239;28;20040;-65
2023/04/03 03:18:21;;;;;;;4.10;1.98;;;3.30;99.90;;;;;;5048185;28;20414;-66
2023/04/03 03:20:46;;;;;;;7.97;2.10;;;3.30;99.90;;;;;;5063198;28;20238;-63
2023/04/03 03:23:12;;;;;;;4.25;1.83;;;3.30;99.90;;;;;;5048483;28;20029;-63
2023/04/03 03:25:40;;;;;;;4.10;1.83;;;3.30;99.90;;;;;;5049536;28;20121;-65
2023/04/03 03:28:07;;;;;;;6.30;1.98;;;3.20;99.90;;;;;;5048556;28;20037;-64
2023/04/03 03:30:33;;;;;;;5.40;2.30;;;3.20;99.90;;;;;;5049625;28;20514;-64
2023/04/03 03:32:59;;;;;;;4.88;2.03;;;3.20;99.90;;;;;;5032821;28;20163;-64
2023/04/03 03:35:25;;;;;;;5.55;2.10;;;3.20;99.90;;;;;;5048859;28;20120;-63
2023/04/03 03:37:50;;;;;;;5.22;2.30;;;3.10;99.90;;;;;;5045158;28;20059;-64
2023/04/03 03:40:16;;;;;;;6.78;2.30;;;3.10;99.90;;;;;;5028977;28;20087;-64
2023/04/03 03:42:41;;;;;;;4.95;2.20;;;3.10;99.90;;;;;;5049498;28;20087;-64
2023/04/03 03:45:08;;;;;;;6.93;1.90;;;3.10;99.90;;;;;;5049024;28;20047;-64
2023/04/03 03:47:33;;;;;;;5.90;2.40;;;3.00;99.90;;;;;;5049729;28;20041;-64
2023/04/03 03:49:59;;;;;;;5.82;2.10;;;3.00;99.90;;;;;;5045847;28;20037;-64
2023/04/03 03:52:25;;;;;;;3.22;1.90;;;3.00;99.90;;;;;;5048826;28;20036;-65
2023/04/03 03:54:50;;;;;;;5.85;1.95;;;3.00;99.90;;;;;;5057454;28;20072;-64
2023/04/03 03:57:16;;;;;;;7.03;2.30;;;3.00;99.90;;;;;;5047724;28;20037;-64
2023/04/03 03:59:43;;;;;;;6.13;2.10;;;3.00;99.90;;;;;;5060018;28;20128;-65
2023/04/03 04:02:10;;;;;;;8.85;2.33;;;3.00;99.90;;;;;;5028384;28;20402;-64
2023/04/03 04:04:36;;;;;;;7.03;2.10;;;2.90;99.90;;;;;;5047536;28;20045;-64
2023/04/03 04:07:02;;;;;;;4.97;2.30;;;2.90;99.90;;;;;;5029723;28;20044;-65
2023/04/03 04:09:28;;;;;;;6.85;2.10;;;2.90;99.90;;;;;;5050488;28;20048;-64
2023/04/03 04:11:53;;;;;;;5.68;2.40;;;2.80;99.90;;;;;;5048899;28;20442;-64
2023/04/03 04:14:20;;;;;;;10.98;2.40;;;2.80;99.90;;;;;;5050452;28;20741;-64
2023/04/03 04:16:46;;;;;;;9.23;2.30;;;2.80;99.90;;;;;;5029344;28;20049;-64
2023/04/03 04:19:12;;;;;;;4.28;2.10;;;2.80;99.90;;;;;;5046487;28;20053;-65
2023/04/03 04:21:38;;;;;;;5.65;2.28;;;2.80;99.90;;;;;;5028726;28;20041;-65
2023/04/03 04:24:04;;;;;;;5.10;2.90;;;2.70;99.90;;;;;;5031771;28;20048;-65
2023/04/03 04:26:29;;;;;;;10.65;2.30;;;2.70;99.90;;;;;;5048814;28;20037;-64
2023/04/03 04:28:55;;;;;;;6.85;2.25;;;2.70;99.90;;;;;;5054786;28;20055;-65
2023/04/03 04:31:20;;;;;;;6.13;2.30;;;2.70;99.90;;;;;;5029766;28;20037;-64
2023/04/03 04:33:46;;;;;;;6.63;2.58;;;2.70;99.90;;;;;;5027870;28;20048;-64
2023/04/03 04:36:11;;;;;;;5.60;2.35;;;2.70;99.90;;;;;;5044139;28;20055;-64
2023/04/03 04:38:38;;;;;;;7.47;2.35;;;2.70;99.90;;;;;;5033730;28;20080;-65
2023/04/03 04:41:03;;;;;;;5.97;2.40;;;2.60;99.90;;;;;;5036300;28;20099;-64
2023/04/03 04:43:29;;;;;;;6.53;2.65;;;2.60;99.90;;;;;;5024145;28;20029;-64
2023/04/03 04:46:02;;;;;;;6.25;2.40;;;2.60;99.90;;;;;;5017860;28;20029;-65
2023/04/03 04:48:27;;;;;;;9.20;2.42;;;2.60;99.90;;;;;;5028456;28;20071;-64
2023/04/03 04:50:53;;;;;;;5.50;2.03;;;2.60;99.90;;;;;;5023202;28;20083;-65
2023/04/03 04:53:18;;;;;;;5.47;2.08;;;2.60;99.90;;;;;;5044032;28;20111;-65
2023/04/03 04:55:44;;;;;;;5.70;2.08;;;2.60;99.90;;;;;;5045525;28;20041;-65
2023/04/03 04:58:09;;;;;;;6.75;2.40;;;2.60;99.90;;;;;;5042859;28;20041;-65
2023/04/03 05:00:35;;;;;;;9.02;2.95;;;2.50;99.90;;;;;;5046179;28;20038;-64
2023/04/03 05:03:01;;;;;;;8.70;2.50;;;2.50;99.90;;;;;;5039806;28;20048;-64
2023/04/03 05:05:26;;;;;;;7.88;2.30;;;2.50;99.90;;;;;;5046598;28;20043;-65
2023/04/03 05:07:52;;;;;;;5.82;2.03;;;2.50;99.90;;;;;;5044916;28;20084;-65
2023/04/03 05:10:17;;;;;;;5.32;2.28;;;2.50;99.90;;;;;;5027144;28;20041;-64
2023/04/03 05:12:43;;;;;;;8.13;2.60;;;2.50;99.90;;;;;;5028972;28;20041;-65
2023/04/03 05:15:09;;;;;;;7.20;2.30;;;2.50;99.90;;;;;;5041916;28;20049;-66
2023/04/03 05:17:34;;;;;;;6.50;2.22;;;2.40;99.90;;;;;;5023879;28;20102;-64
2023/04/03 05:20:00;;;;;;;6.00;2.40;;;2.40;99.90;;;;;;5048452;28;20041;-65
2023/04/03 05:22:25;;;;;;;4.95;2.47;;;2.40;99.90;;;;;;5032180;28;20099;-65
2023/04/03 05:24:51;;;;;;;10.25;2.55;;;2.40;99.90;;;;;;5048829;28;20048;-64
2023/04/03 05:27:16;;;;;;;6.28;2.50;;;2.40;99.90;;;;;;5047856;28;20488;-65
2023/04/03 05:29:43;;;;;;;6.35;2.60;;;2.30;99.90;;;;;;5044033;28;20415;-65
2023/04/03 05:32:10;;;;;;;5.20;1.90;;;2.40;99.90;;;;;;5058324;28;20049;-65
2023/04/03 05:34:36;;;;;;;8.10;2.42;;;2.40;99.90;;;;;;5063535;28;20495;-64
2023/04/03 05:37:03;;;;;;;7.95;2.80;;;2.30;99.90;;;;;;5061224;28;20129;-64
2023/04/03 05:39:28;;;;;;;8.88;2.60;;;2.30;99.90;;;;;;5050033;28;20037;-64
2023/04/03 05:41:54;;;;;;;6.40;2.53;;;2.30;99.90;;;;;;5051036;28;20045;-65
2023/04/03 05:44:19;;;;;;;6.28;2.20;;;2.30;99.90;;;;;;5033909;28;20037;-66
2023/04/03 05:46:45;;;;;;;10.23;2.90;;;2.30;99.90;;;;;;5034088;28;20170;-65
2023/04/03 05:49:11;;;;;;;8.13;2.92;;;2.30;99.90;;;;;;5046217;28;20120;-66
2023/04/03 05:51:37;;;;;;;7.97;2.33;;;2.30;99.90;;;;;;5049203;28;20068;-66
2023/04/03 05:54:10;;;;;;;5.68;2.38;;;2.30;99.90;;;;;;5055602;28;20048;-66
2023/04/03 05:56:36;;;;;;;7.22;2.25;;;2.30;99.90;;;;;;5054512;28;20040;-66
2023/04/03 05:59:02;;;;;;;6.90;2.65;;;2.30;99.90;;;;;;5057546;28;20564;-65
2023/04/03 06:01:27;;;;;;;6.05;2.55;;;2.30;99.90;;;;;;5055016;28;20041;-64
2023/04/03 06:03:53;;;;;;;5.72;2.10;;;2.30;99.90;;;;;;5063080;28;20040;-66
2023/04/03 06:06:19;;;;;;;9.65;2.92;;;2.30;99.90;;;;;;5041271;28;20048;-66
2023/04/03 06:08:46;;;;;;;5.10;2.17;;;2.30;99.90;;;;;;5038252;28;20041;-67
2023/04/03 06:11:11;;;;;;;5.57;2.28;;;2.30;99.90;;;;;;5043299;28;20519;-66
2023/04/03 06:13:38;;;;;;;6.18;2.40;;;2.30;99.90;;;;;;5056966;28;20040;-66
2023/04/03 06:16:04;;;;;;;7.93;2.30;;;2.40;99.90;;;;;;5056286;28;20045;-67
2023/04/03 06:18:30;;;;;;;4.88;2.35;;;2.40;99.90;;;;;;5032955;28;20052;-65
2023/04/03 06:20:55;;;;;;;6.28;2.55;;;2.40;99.90;;;;;;5046777;28;20063;-67
2023/04/03 06:23:21;;;;;;;7.05;2.30;;;2.40;99.90;;;;;;5032618;28;20032;-66
2023/04/03 06:25:46;;;;;;;7.43;2.40;;;2.40;99.90;;;;;;5050289;28;20064;-66
2023/04/03 06:28:12;;;;;;;6.40;2.22;;;2.40;99.90;;;;;;5065574;28;20036;-66
2023/04/03 06:30:38;;;;;;;8.60;2.45;;;2.50;99.90;;;;;;5049553;28;20044;-67
2023/04/03 06:33:03;;;;;;;7.18;2.42;;;2.50;99.90;;;;;;5058623;28;20387;-67
2023/04/03 06:35:30;;;;;;;4.78;2.10;;;2.50;99.90;;;;;;5055640;28;20032;-67
2023/04/03 06:37:56;;;;;;;6.13;2.40;;;2.50;99.90;;;;;;5031460;28;20142;-66
2023/04/03 06:40:24;;;;;;;4.38;2.30;;;2.50;99.90;;;;;;5032022;28;20499;-66
2023/04/03 06:42:49;;;;;;;7.88;2.30;;;2.50;99.90;;;;;;5036670;28;20316;-65
2023/04/03 06:45:15;;;;;;;7.47;2.40;;;2.60;99.90;;;;;;5044828;28;20041;-66
2023/04/03 06:47:41;;;;;;;6.82;2.63;;;2.60;99.90;;;;;;5043185;28;20472;-66
2023/04/03 06:50:08;;;;;;;6.95;2.30;;;2.60;99.90;;;;;;5029083;28;20041;-65
2023/04/03 06:52:34;;;;;;;7.93;2.20;;;2.60;99.90;;;;;;5033458;28;20040;-67
2023/04/03 06:55:00;;;;;;;8.63;2.38;;;2.60;99.90;;;;;;5034829;28;20041;-64
2023/04/03 06:57:26;;;;;;;7.72;2.40;;;2.70;99.90;;;;;;5031575;28;20067;-67
2023/04/03 06:59:51;;;;;;;9.07;2.40;;;2.70;99.90;;;;;;5032624;28;20050;-66
2023/04/03 07:02:17;;;;;;;8.57;1.98;;;2.70;99.90;;;;;;5059208;28;20032;-66
2023/04/03 07:04:43;;;;;;;4.93;1.92;;;2.80;99.90;;;;;;5054165;28;20110;-66
2023/04/03 07:07:08;;;;;;;6.35;2.03;;;2.80;99.90;;;;;;5049531;28;20037;-66
2023/04/03 07:09:34;;;;;;;7.47;2.03;;;2.80;99.90;;;;;;5049740;28;20451;-66
2023/04/03 07:12:00;;;;;;;4.85;1.85;;;2.90;99.90;;;;;;5047546;28;20037;-66
2023/04/03 07:14:26;;;;;;;5.18;1.63;;;2.90;99.90;;;;;;5059187;28;20521;-66
2023/04/03 07:16:51;;;;;;;5.43;2.17;;;2.90;99.90;;;;;;5039910;28;20045;-63
2023/04/03 07:19:18;;;;;;;8.77;2.05;;;2.90;99.90;;;;;;5060753;28;20035;-66
2023/04/03 07:21:46;;;;;;;8.20;2.00;;;2.90;99.90;;;;;;5048600;28;20044;-64
2023/04/03 07:24:11;;;;;;;7.53;1.90;;;3.00;99.90;;;;;;5059432;28;20040;-67
2023/04/03 07:26:37;;;;;;;7.13;2.05;;;3.00;99.90;;;;;;5055057;28;20043;-67
2023/04/03 07:29:05;;;;;;;4.53;2.05;;;3.00;99.90;;;;;;5059559;28;20116;-66
2023/04/03 07:31:31;;;;;;;5.20;1.70;;;3.10;99.90;;;;;;5052174;28;20044;-67
2023/04/03 07:33:57;;;;;;;7.07;1.90;;;3.20;99.90;;;;;;5049308;28;20510;-66
2023/04/03 07:36:23;;;;;;;4.80;2.00;;;3.10;99.90;;;;;;5029933;28;20538;-66
2023/04/03 07:38:49;;;;;;;8.48;2.10;;;3.10;99.90;;;;;;5043157;28;20050;-66
2023/04/03 07:41:17;;;;;;;4.22;1.65;;;3.20;99.90;;;;;;5060081;28;20037;-66
2023/04/03 07:43:43;;;;;;;4.80;1.95;;;3.20;99.90;;;;;;5055408;28;20052;-66
2023/04/03 07:46:09;;;;;;;6.78;1.98;;;3.20;99.90;;;;;;5031832;28;20103;-66
2023/04/03 07:48:35;;;;;;;9.48;2.80;;;3.30;99.90;;;;;;5055417;28;20036;-67
2023/04/03 07:51:02;;;;;;;6.28;2.60;;;3.30;99.90;;;;;;5049800;28;20052;-65
2023/04/03 07:53:28;;;;;;;6.15;2.00;;;3.30;99.90;;;;;;5029211;28;20036;-67
2023/04/03 07:55:56;;;;;;;7.88;2.15;;;3.40;99.90;;;;;;5054460;28;20497;-67
2023/04/03 07:58:21;;;;;;;5.07;1.70;;;3.40;99.90;;;;;;5046386;28;20045;-66
2023/04/03 08:00:48;;;;;;;4.53;1.92;;;3.40;99.90;;;;;;5045896;28;20037;-66
2023/04/03 08:03:16;;;;;;;8.25;2.22;;;3.40;99.90;;;;;;5044242;28;20084;-67
2023/04/03 08:05:43;;;;;;;4.75;1.85;;;3.40;99.90;;;;;;5032044;28;20095;-67
2023/04/03 08:08:11;;;;;;;3.58;1.63;;;3.50;99.90;;;;;;5045736;28;20565;-66
2023/04/03 08:10:37;;;;;;;5.43;1.77;;;3.60;99.90;;;;;;5049082;28;20496;-64
2023/04/03 08:13:04;;;;;;;5.28;1.88;;;3.60;99.90;;;;;;5050243;28;20038;-66
2023/04/03 08:15:31;;;;;;;6.68;1.92;;;3.60;99.90;;;;;;5042004;28;20064;-66
2023/04/03 08:17:57;;;;;;;5.72;1.90;;;3.60;99.90;;;;;;5041593;28;20041;-67
2023/04/03 08:20:23;;;;;;;3.03;1.42;;;3.70;99.90;;;;;;5032668;28;20041;-65
2023/04/03 08:22:48;;;;;;;6.25;1.85;;;3.70;99.90;;;;;;5048370;28;20075;-67
2023/04/03 08:25:14;;;;;;;5.43;1.77;;;3.80;99.90;;;;;;5057228;28;20036;-66
2023/04/03 08:27:40;;;;;;;7.45;1.80;;;3.80;99.90;;;;;;5040621;28;20044;-66
2023/04/03 08:30:06;;;;;;;5.10;1.55;;;3.80;99.90;;;;;;5038936;28;21496;-66
2023/04/03 08:32:34;;;;;;;5.38;1.70;;;3.90;99.90;;;;;;5035881;28;20521;-66
2023/04/03 08:35:00;;;;;;;7.88;2.28;;;3.90;99.90;;;;;;5033940;28;20617;-65
2023/04/03 08:37:26;;;;;;;3.03;1.30;;;4.00;99.90;;;;;;5048620;28;20116;-65
2023/04/03 08:39:52;;;;;;;4.53;1.55;;;4.00;99.90;;;;;;5061198;28;20502;-64
2023/04/03 08:42:26;;;;;;;5.20;1.83;;;4.00;99.90;;;;;;5052721;28;20044;-67
2023/04/03 08:45:04;;;;;;;5.63;1.20;;;4.00;99.90;;;;;;5042530;28;20047;-66
2023/04/03 08:47:42;;;;;;;5.35;1.45;;;4.10;99.90;;;;;;5057739;28;20437;-67
2023/04/03 08:50:16;;;;;;;7.03;1.40;;;4.20;99.90;;;;;;5040009;28;20057;-66
2023/04/03 08:52:49;;;;;;;2.83;1.30;;;4.20;99.90;;;;;;5052668;28;20191;-65
2023/04/03 08:55:51;;;;;;;3.65;1.50;;;4.30;99.90;;;;;;5060043;28;20043;-66
2023/04/03 08:58:25;;;;;;;6.60;1.70;;;4.30;99.90;;;;;;5047114;28;20496;-66
2023/04/03 09:00:56;;;;;;;3.20;1.38;;;4.30;99.90;;;;;;5021647;28;20049;-66
2023/04/03 09:03:22;;;;;;;4.72;1.40;;;4.40;99.90;;;;;;5051600;28;20037;-67
2023/04/03 09:06:02;;;;;;;3.78;1.10;;;4.50;99.90;;;;;;5041359;28;20484;-66
2023/04/03 09:08:40;;;;;;;3.03;1.38;;;4.60;99.90;;;;;;5033141;28;20074;-66
2023/04/03 09:11:27;;;;;;;3.45;1.20;;;4.70;99.90;;;;;;5052060;28;20059;-67
2023/04/03 09:14:10;;;;;;;4.28;1.30;;;4.90;99.90;;;;;;5030290;28;20041;-65
2023/04/03 09:16:54;;;;;;;3.30;1.48;;;5.10;99.90;;;;;;5065010;28;20047;-66
2023/04/03 09:19:54;;;;;;;3.10;1.10;;;5.30;99.90;;;;;;5064070;28;20083;-66
2023/04/03 09:22:23;;;;;;;3.97;1.23;;;5.60;99.90;;;;;;5000066;28;20139;-66
2023/04/03 09:24:57;;;;;;;3.50;1.25;;;5.80;99.90;;;;;;5059685;28;20384;-65
2023/04/03 09:27:22;;;;;;;2.53;1.00;;;6.10;99.90;;;;;;5038162;28;20087;-66
2023/04/03 09:29:52;;;;;;;3.20;1.30;;;6.40;99.90;;;;;;5062912;28;20040;-66
2023/04/03 09:32:25;;;;;;;2.63;1.10;;;6.70;99.90;;;;;;5054876;28;20087;-67
2023/04/03 09:34:53;;;;;;;3.22;1.00;;;7.00;99.90;;;;;;5044876;28;20102;-67
2023/04/03 09:37:40;;;;;;;2.47;0.98;;;7.20;99.90;;;;;;5042193;28;20048;-67
2023/04/03 09:40:26;;;;;;;3.00;1.08;;;7.50;99.90;;;;;;5049561;28;20402;-67
2023/04/03 09:42:56;;;;;;;2.40;1.00;;;7.80;99.90;;;;;;5052752;28;20079;-65
2023/04/03 09:45:27;;;;;;;2.60;0.95;;;8.10;99.90;;;;;;5044413;28;20508;-66
2023/04/03 09:48:06;;;;;;;4.72;1.20;;;8.20;99.90;;;;;;5036912;28;20048;-66
2023/04/03 09:50:34;;;;;;;2.88;1.00;;;8.40;99.90;;;;;;5057253;28;20406;-67
2023/04/03 09:53:05;;;;;;;6.28;1.40;;;8.60;99.90;;;;;;5036936;28;20045;-66
2023/04/03 09:55:31;;;;;;;2.50;0.90;;;8.90;99.90;;;;;;5056383;28;20475;-68
2023/04/03 09:58:04;;;;;;;3.08;0.80;;;9.00;98.70;;;;;;5057113;28;20075;-67
2023/04/03 10:00:37;;;;;;;3.05;1.00;;;9.20;98.10;;;;;;5038112;28;20115;-66
2023/04/03 10:03:04;;;;;;;4.10;1.08;;;9.30;96.70;;;;;;5056759;28;20037;-67
2023/04/03 10:05:38;;;;;;;2.67;1.00;;;9.40;97.60;;;;;;5040171;28;20120;-65
2023/04/03 10:08:13;;;;;;;3.78;0.95;;;9.50;95.50;;;;;;5054852;28;20069;-69
2023/04/03 10:10:43;;;;;;;2.45;0.90;;;9.70;94.80;;;;;;5058311;28;20124;-67
2023/04/03 10:13:20;;;;;;;2.40;0.88;;;9.80;93.00;;;;;;5053722;28;20479;-67
2023/04/03 10:15:56;;;;;;;1.73;0.85;;;10.00;93.00;;;;;;5054611;28;20072;-67
2023/04/03 10:18:30;;;;;;;1.95;0.80;;;10.20;94.50;;;;;;5033675;28;20045;-66
2023/04/03 10:21:06;;;;;;;1.80;0.93;;;10.30;93.30;;;;;;5057233;28;20059;-67
2023/04/03 10:23:46;;;;;;;4.00;1.10;;;10.40;92.90;;;;;;5047733;28;20054;-67
2023/04/03 10:26:16;;;;;;;1.85;1.00;;;10.50;91.40;;;;;;5059513;28;20049;-66
2023/04/03 10:29:01;;;;;;;3.42;1.05;;;10.60;91.40;;;;;;5043024;28;20394;-67
2023/04/03 10:32:01;;;;;;;2.35;1.00;;;10.80;87.70;;;;;;5026991;28;20162;-66
2023/04/03 10:34:27;;;;;;;1.00;0.75;;;10.90;86.00;;;;;;5059661;28;20394;-65
2023/04/03 10:37:10;;;;;;;2.92;1.00;;;11.10;90.50;;;;;;5063744;28;20036;-67
2023/04/03 10:40:15;;;;;;;1.48;0.73;;;11.20;86.50;;;;;;5044841;28;20490;-66
2023/04/03 10:42:56;;;;;;;2.13;0.90;;;11.20;83.60;;;;;;5049940;28;20055;-67
2023/04/03 10:45:33;;;;;;;3.47;1.20;;;11.30;85.60;;;;;;5037169;28;20090;-66
2023/04/03 10:48:14;;;;;;;2.67;1.25;;;11.50;84.60;;;;;;5040254;28;20052;-65
2023/04/03 10:51:02;;;;;;;2.03;1.13;;;11.60;86.90;;;;;;5045447;28;20051;-67
2023/04/03 10:53:36;;;;;;;2.88;1.00;;;11.50;83.10;;;;;;5032574;28;20091;-67
2023/04/03 10:56:12;;;;;;;1.80;0.90;;;11.60;83.00;;;;;;5037020;28;20123;-67
2023/04/03 10:59:00;;;;;;;3.30;1.08;;;11.60;83.00;;;;;;5050379;28;20049;-67
2023/04/03 11:01:32;;;;;;;3.35;1.20;;;11.60;80.90;;;;;;5048638;28;20048;-66
2023/04/03 11:04:00;;;;;;;2.88;1.10;;;11.70;83.80;;;;;;5040453;28;20313;-66
2023/04/03 11:06:36;;;;;;;2.58;1.00;;;11.80;84.30;;;;;;5034415;28;20097;-67
2023/04/03 11:09:25;;;;;;;2.15;1.00;;;12.00;80.20;;;;;;5058436;28;20116;-64
2023/04/03 11:11:56;;;;;;;2.70;1.05;;;11.90;79.00;;;;;;5041511;28;20190;-67
2023/04/03 11:14:31;;;;;;;2.78;1.20;;;12.00;82.20;;;;;;5047015;28;20491;-67
2023/04/03 11:17:16;;;;;;;1.83;1.10;;;12.10;79.30;;;;;;5033236;28;20040;-67
2023/04/03 11:19:48;;;;;;;6.00;1.50;;;12.10;81.10;;;;;;5049955;28;20037;-66
2023/04/03 11:22:31;;;;;;;2.47;1.23;;;12.20;80.60;;;;;;5050816;28;20045;-64
2023/04/03 11:25:23;;;;;;;3.38;1.20;;;12.20;79.80;;;;;;5031132;28;20090;-67
2023/04/03 11:27:52;;;;;;;;;;;12.20;75.60;;;;;;5045871;28;20116;-66
2023/04/03 11:30:23;;;;;;;2.38;1.20;;;12.20;77.20;;;;;;5031651;28;20400;-66
2023/04/03 11:33:10;;;;;;;3.20;1.10;;;12.30;79.30;;;;;;5056550;28;20036;-66
2023/04/03 11:35:37;;;;;;;2.75;1.25;;;12.30;76.00;;;;;;5044533;28;20057;-66
2023/04/03 11:38:06;;;;;;;2.35;1.10;;;12.40;79.70;;;;;;5049444;28;20044;-66
2023/04/03 11:40:35;;;;;;;3.13;1.20;;;12.40;79.80;;;;;;5052428;28;20401;-66
2023/04/03 11:43:21;;;;;;;2.90;1.10;;;12.50;79.50;;;;;;5049262;28;20052;-65
2023/04/03 11:45:54;;;;;;;3.60;1.00;;;12.50;76.50;;;;;;5056745;28;20045;-67
2023/04/03 11:48:31;;;;;;;5.28;1.20;;;12.50;77.60;;;;;;5039978;28;20127;-66
2023/04/03 11:50:58;;;;;;;2.58;1.10;;;12.50;77.80;;;;;;5061570;28;20044;-66
2023/04/03 11:53:38;;;;;;;3.08;1.13;;;12.60;77.60;;;;;;5035281;28;20037;-67
2023/04/03 11:56:27;;;;;;;5.13;1.20;;;12.70;76.20;;;;;;5061842;28;20041;-67
2023/04/03 11:59:11;;;;;;;2.65;1.27;;;12.70;76.20;;;;;;5031744;28;20052;-64
2023/04/03 12:02:00;;;;;;;2.08;1.05;;;12.70;73.00;;;;;;5054977;28;20542;-62
2023/04/03 12:04:27;;;;;;;2.80;1.17;;;12.60;72.10;;;;;;5035191;28;20390;-63
2023/04/03 12:07:00;;;;;;;3.50;1.30;;;12.70;74.30;;;;;;5047240;28;20603;-64
2023/04/03 12:09:27;;;;;;;4.20;1.05;;;12.80;74.00;;;;;;5043689;28;20029;-62
2023/04/03 12:11:55;;;;;;;4.70;1.30;;;12.70;74.10;;;;;;5042847;28;20045;-64
2023/04/03 12:14:25;;;;;;;2.50;1.15;;;12.70;75.20;;;;;;5029560;28;20496;-64
2023/04/03 12:16:54;;;;;;;3.63;1.40;;;12.70;75.30;;;;;;5055832;28;20049;-64
2023/04/03 12:19:40;;;;;;;3.22;1.40;;;12.70;76.80;;;;;;5048700;28;20086;-62
2023/04/03 12:22:08;;;;;;;3.90;1.40;;;12.80;75.30;;;;;;5044791;28;20037;-64
2023/04/03 12:24:40;;;;;;;3.33;1.30;;;12.70;74.60;;;;;;5050318;28;20041;-63
2023/04/03 12:27:23;;;;;;;1.90;0.90;;;12.70;74.80;;;;;;5034971;28;20049;-64
2023/04/03 12:30:05;;;;;;;2.38;1.00;;;12.70;74.80;;;;;;5048213;28;20036;-63
2023/04/03 12:32:41;;;;;;;2.53;1.15;;;12.80;75.20;;;;;;5026617;28;20048;-64
2023/04/03 12:35:20;;;;;;;2.85;1.20;;;12.80;74.70;;;;;;5046463;28;20039;-61
2023/04/03 12:37:49;;;;;;;4.78;1.20;;;12.90;72.20;;;;;;5022427;28;20489;-64
2023/04/03 12:40:38;;;;;;;3.97;1.30;;;12.90;73.20;;;;;;5050699;28;20041;-62
2023/04/03 12:43:28;;;;;;;4.00;1.33;;;12.90;74.20;;;;;;5053344;28;20067;-63
2023/04/03 12:46:15;;;;;;;5.00;1.10;;;12.90;72.70;;;;;;5043160;28;20043;-63
2023/04/03 12:48:58;;;;;;;3.25;1.65;;;12.90;73.30;;;;;;5046931;28;20505;-64
2023/04/03 12:51:41;;;;;;;3.05;1.35;;;12.90;74.00;;;;;;5034112;28;20041;-64
2023/04/03 12:54:21;;;;;;;5.10;1.50;;;12.90;71.50;;;;;;5019611;28;20041;-63
2023/04/03 12:56:47;;;;;;;3.47;1.23;;;12.90;72.90;;;;;;5035489;28;20045;-62
2023/04/03 12:59:26;;;;;;;4.22;1.27;;;12.90;74.30;;;;;;5049228;28;20094;-64
2023/04/03 13:02:00;;;;;;;6.35;1.52;;;13.00;73.10;;;;;;5043817;28;20376;-63
2023/04/03 13:04:31;;;;;;;4.10;1.30;;;13.00;72.50;;;;;;5030201;28;20037;-63
2023/04/03 13:06:57;;;;;;;4.53;1.40;;;13.00;73.00;;;;;;5039837;28;20339;-63
2023/04/03 13:09:27;;;;;;;4.38;1.40;;;12.90;72.80;;;;;;5028890;28;20090;-62